Time;durP1;ratioP1;P1;durP2;ratioP2;P2;SDS_P1;SDS_P2;PMS_P1;PMS_P2;Temp;Humidity;BMP_temperature;BMP_pressure;BME280_temperature;BME280_humidity;BME280_pressure;Samples;Min_cycle;Max_cycle;Signal;HPM_P1;HPM_P2
2023/06/10 00:00:41;;;;;;;0.63;0.60;;;;;;;17.19;100.00;99481.38;4953623;28;20053;-92
2023/06/10 00:03:08;;;;;;;1.77;0.32;;;;;;;17.08;100.00;99470.09;4970300;28;20492;-92
2023/06/10 00:05:34;;;;;;;0.20;0.20;;;;;;;16.92;100.00;99449.06;4942521;28;20074;-92
2023/06/10 00:08:06;;;;;;;0.45;0.45;;;;;;;17.04;100.00;99458.31;4970013;28;20038;-94
2023/06/10 00:10:34;;;;;;;1.77;1.10;;;;;;;17.07;100.00;99471.34;4964894;28;20045;-91
2023/06/10 00:13:01;;;;;;;0.40;0.40;;;;;;;16.92;100.00;99449.06;4946278;28;20034;-94
2023/06/10 00:15:26;;;;;;;2.33;1.63;;;;;;;17.03;100.00;99473.59;4963409;28;20121;-92
2023/06/10 00:17:52;;;;;;;0.43;0.43;;;;;;;16.92;100.00;99470.69;4970107;28;20482;-92
2023/06/10 00:20:18;;;;;;;3.90;2.13;;;;;;;16.84;100.00;99464.75;4953180;28;20058;-92
2023/06/10 00:22:45;;;;;;;0.60;0.60;;;;;;;16.87;100.00;99479.78;4959861;28;20103;-93
2023/06/10 00:25:11;;;;;;;0.70;0.60;;;;;;;16.88;100.00;99484.16;4968152;28;20031;-92
2023/06/10 00:27:36;;;;;;;22.38;1.13;;;;;;;16.82;100.00;99478.50;4965437;28;20485;-93
2023/06/10 00:30:06;;;;;;;1.10;0.68;;;;;;;16.79;100.00;99477.44;4968582;28;20046;-92
2023/06/10 00:32:33;;;;;;;1.67;0.95;;;;;;;16.81;100.00;99478.97;4968186;28;20042;-92
2023/06/10 00:34:58;;;;;;;1.75;0.63;;;;;;;16.89;100.00;99494.09;4983088;28;20425;-93
2023/06/10 00:37:24;;;;;;;0.65;0.65;;;;;;;16.91;100.00;99508.38;4950632;28;20027;-91
2023/06/10 00:39:50;;;;;;;1.55;0.93;;;;;;;16.72;100.00;99475.06;4980712;28;20463;-95
2023/06/10 00:42:15;;;;;;;0.93;0.88;;;;;;;16.61;100.00;99485.38;4977878;28;20049;-92
2023/06/10 00:44:41;;;;;;;0.68;0.57;;;;;;;16.52;100.00;99477.88;4973687;28;20034;-94
2023/06/10 00:47:07;;;;;;;0.82;0.65;;;;;;;16.52;100.00;99483.47;4974430;28;20441;-93
2023/06/10 00:49:33;;;;;;;0.47;0.47;;;;;;;16.56;100.00;99495.22;4978011;28;20058;-93
2023/06/10 00:51:59;;;;;;;0.25;0.25;;;;;;;16.50;100.00;99482.44;4987226;28;20494;-92
2023/06/10 00:54:25;;;;;;;0.60;0.22;;;;;;;16.48;100.00;99487.75;4991367;28;20453;-92
2023/06/10 00:56:51;;;;;;;2.60;1.35;;;;;;;16.43;100.00;99480.81;4980972;28;20124;-93
2023/06/10 00:59:18;;;;;;;1.05;0.88;;;;;;;16.40;100.00;99475.44;4974478;28;20478;-91
2023/06/10 01:04:25;;;;;;;0.25;0.25;;;;;;;16.44;100.00;99487.94;4713101;22;20058;-93
2023/06/10 01:07:01;;;;;;;0.28;0.28;;;;;;;16.22;100.00;99460.44;4991201;28;20042;-94
2023/06/10 01:09:48;;;;;;;0.40;0.40;;;;;;;16.41;100.00;99490.97;4982856;28;20390;-93
2023/06/10 01:12:29;;;;;;;0.50;0.50;;;;;;;16.24;100.00;99476.75;4989068;28;20057;-93
2023/06/10 01:14:55;;;;;;;0.80;0.80;;;;;;;16.14;100.00;99469.75;5003445;28;20030;-92
2023/06/10 01:17:23;;;;;;;1.27;0.75;;;;;;;16.23;100.00;99480.81;4988227;28;20048;-92
2023/06/10 01:19:56;;;;;;;0.98;0.52;;;;;;;16.26;100.00;99489.00;4996129;28;20029;-95
2023/06/10 01:22:28;;;;;;;0.13;0.13;;;;;;;16.30;100.00;99505.56;5009077;28;20040;-95
2023/06/10 01:24:57;;;;;;;1.35;0.60;;;;;;;16.00;100.00;99454.56;4997859;28;20046;-94
2023/06/10 01:27:29;;;;;;;0.32;0.32;;;;;;;16.12;100.00;99472.28;5000626;28;20124;-94
2023/06/10 01:30:03;;;;;;;0.47;0.47;;;;;;;16.11;100.00;99473.53;4996582;28;20026;-95
2023/06/10 01:32:40;;;;;;;1.38;0.82;;;;;;;16.00;100.00;99468.56;4996947;28;20034;-95
2023/06/10 01:35:08;;;;;;;0.50;0.50;;;;;;;15.96;100.00;99478.41;5007335;28;20038;-95
2023/06/10 01:37:39;;;;;;;0.25;0.25;;;;;;;15.84;100.00;99464.28;5001433;28;20030;-94
2023/06/10 01:40:06;;;;;;;1.17;0.88;;;;;;;15.72;100.00;99451.38;5005195;28;20048;-94
2023/06/10 01:42:33;;;;;;;0.80;0.70;;;;;;;15.77;100.00;99461.84;4996133;28;20494;-95
2023/06/10 01:44:59;;;;;;;0.65;0.65;;;;;;;15.97;100.00;99488.34;5018684;28;20045;-95
2023/06/10 01:47:25;;;;;;;0.68;0.63;;;;;;;15.82;100.00;99458.38;5008672;28;20055;-92
2023/06/10 01:49:51;;;;;;;0.60;0.45;;;;;;;15.84;100.00;99455.88;5008299;28;20065;-94
2023/06/10 01:52:16;;;;;;;0.10;0.10;;;;;;;16.02;100.00;99485.59;5024867;28;20030;-95
2023/06/10 01:54:42;;;;;;;2.03;1.08;;;;;;;15.92;100.00;99463.84;4985644;28;20461;-94
2023/06/10 01:57:08;;;;;;;0.47;0.47;;;;;;;15.88;100.00;99463.28;5013556;28;20095;-95
2023/06/10 01:59:33;;;;;;;1.10;0.98;;;;;;;15.76;100.00;99451.94;5021834;28;20473;-94
2023/06/10 02:01:59;;;;;;;0.57;0.57;;;;;;;15.94;100.00;99478.09;4997102;28;20486;-95
2023/06/10 02:04:25;;;;;;;1.85;1.02;;;;;;;15.84;100.00;99464.28;5021358;28;20516;-93
2023/06/10 02:06:51;;;;;;;0.32;0.32;;;;;;;15.73;100.00;99452.91;4989619;28;20026;-94
2023/06/10 02:09:18;;;;;;;1.02;0.93;;;;;;;15.76;100.00;99451.94;5014438;28;20029;-93
2023/06/10 02:11:44;;;;;;;5.57;1.15;;;;;;;15.84;100.00;99463.50;5012980;28;20120;-94
2023/06/10 02:14:10;;;;;;;0.40;0.40;;;;;;;15.79;100.00;99462.16;4994636;28;20157;-93
2023/06/10 02:16:36;;;;;;;1.75;1.27;;;;;;;15.62;100.00;99433.19;5000205;28;20033;-94
2023/06/10 02:19:06;;;;;;;1.17;0.30;;;;;;;15.72;100.00;99431.81;4982390;28;20112;-94
2023/06/10 02:21:34;;;;;;;1.17;0.75;;;;;;;15.78;100.00;99448.66;5011002;28;20037;-94
2023/06/10 02:24:00;;;;;;;0.28;0.28;;;;;;;15.56;100.00;99423.19;4992185;28;20502;-94
2023/06/10 02:26:26;;;;;;;0.68;0.60;;;;;;;15.64;100.00;99436.28;4990320;28;20365;-95
2023/06/10 02:28:52;;;;;;;1.00;0.77;;;;;;;15.68;100.00;99445.22;4998979;28;20095;-95
2023/06/10 02:31:19;;;;;;;0.40;0.40;;;;;;;15.49;100.00;99415.91;4986388;28;20022;-94
2023/06/10 02:33:45;;;;;;;0.45;0.45;;;;;;;15.52;100.00;99431.00;4979352;28;20445;-94
2023/06/10 02:36:15;;;;;;;0.65;0.60;;;;;;;15.58;100.00;99446.59;5011426;28;20018;-94
2023/06/10 02:38:41;;;;;;;0.17;0.17;;;;;;;15.61;100.00;99453.25;5010580;28;20040;-94
2023/06/10 02:41:08;;;;;;;0.20;0.20;;;;;;;15.42;100.00;99430.31;5002643;28;20078;-95
2023/06/10 02:43:35;;;;;;;0.70;0.63;;;;;;;15.56;100.00;99457.50;5012533;28;20029;-93
2023/06/10 02:46:01;;;;;;;0.10;0.10;;;;;;;15.51;100.00;99452.59;5005175;28;20029;-93
2023/06/10 02:48:27;;;;;;;0.30;0.30;;;;;;;15.36;100.00;99430.22;5010262;28;20029;-92
2023/06/10 02:50:55;;;;;;;0.60;0.60;;;;;;;15.37;100.00;99439.34;5013528;28;20548;-93
2023/06/10 02:53:31;;;;;;;0.30;0.30;;;;;;;15.40;100.00;99444.00;5010828;28;20128;-94
2023/06/10 02:56:04;;;;;;;0.73;0.73;;;;;;;15.36;100.00;99432.25;4998533;28;20080;-93
2023/06/10 02:58:30;;;;;;;2.25;0.93;;;;;;;15.31;100.00;99430.13;4980371;28;20400;-93
2023/06/10 03:00:58;;;;;;;0.77;0.77;;;;;;;15.35;100.00;99430.69;4982197;28;20035;-95
2023/06/10 03:03:25;;;;;;;0.90;0.85;;;;;;;15.34;100.00;99432.72;5016531;28;20543;-95
2023/06/10 03:06:04;;;;;;;2.00;1.25;;;;;;;15.25;100.00;99430.03;5016522;28;20502;-94
2023/06/10 03:08:31;;;;;;;1.88;1.27;;;;;;;15.39;100.00;99448.03;5012104;28;20033;-94
2023/06/10 03:10:59;;;;;;;0.63;0.63;;;;;;;15.32;100.00;99451.25;5001700;28;20127;-93
2023/06/10 03:13:24;;;;;;;0.10;0.10;;;;;;;15.43;100.00;99465.38;5018571;28;20033;-93
2023/06/10 03:15:50;;;;;;;1.40;1.30;;;;;;;15.30;100.00;99462.13;5015201;28;20374;-93
2023/06/10 03:18:26;;;;;;;0.63;0.57;;;;;;;15.24;100.00;99459.25;5017590;28;20694;-93
2023/06/10 03:20:52;;;;;;;0.55;0.55;;;;;;;15.34;100.00;99465.47;5035221;28;20029;-94
2023/06/10 03:23:18;;;;;;;0.38;0.38;;;;;;;15.37;100.00;99470.09;5013674;28;20041;-94
2023/06/10 03:25:45;;;;;;;0.30;0.30;;;;;;;15.19;100.00;99450.75;5020833;28;20490;-95
2023/06/10 03:28:15;;;;;;;0.30;0.30;;;;;;;15.43;100.00;99490.53;4997496;28;20052;-95
2023/06/10 03:30:42;;;;;;;0.13;0.13;;;;;;;15.41;100.00;99493.81;4996104;28;20121;-95
2023/06/10 03:33:09;;;;;;;0.00;0.00;;;;;;;15.39;100.00;99478.78;4993477;28;20482;-93
2023/06/10 03:35:35;;;;;;;0.20;0.20;;;;;;;15.35;100.00;99473.41;5017376;28;20082;-93
2023/06/10 03:38:02;;;;;;;1.73;0.68;;;;;;;15.38;100.00;99475.22;4981708;28;20399;-94
2023/06/10 03:40:30;;;;;;;14.60;0.77;;;;;;;15.41;100.00;99476.25;5002270;28;20033;-93
2023/06/10 03:42:56;;;;;;;0.47;0.40;;;;;;;15.53;100.00;99494.78;5026571;28;20056;-94
2023/06/10 03:45:21;;;;;;;0.50;0.40;;;;;;;15.46;100.00;99483.97;4995319;28;20107;-94
2023/06/10 03:47:47;;;;;;;0.35;0.35;;;;;;;15.55;100.00;99494.31;5018150;28;20029;-93
2023/06/10 03:50:17;;;;;;;0.75;0.60;;;;;;;15.58;100.00;99496.91;4979758;28;20034;-95
2023/06/10 03:52:46;;;;;;;0.28;0.15;;;;;;;15.57;100.00;99495.34;4999679;28;20025;-95
2023/06/10 03:55:13;;;;;;;0.98;0.88;;;;;;;15.47;100.00;99491.13;4992246;28;20029;-95
2023/06/10 03:57:43;;;;;;;0.85;0.85;;;;;;;15.48;100.00;99501.03;5011240;28;20498;-95
2023/06/10 04:00:12;;;;;;;1.65;1.55;;;;;;;15.46;100.00;99481.19;4993038;28;20041;-96
2023/06/10 04:02:49;;;;;;;0.75;0.35;;;;;;;15.56;100.00;99493.84;5005133;28;20764;-95
2023/06/10 04:05:35;;;;;;;0.52;0.52;;;;;;;15.61;100.00;99489.59;4997807;28;20038;-95
2023/06/10 04:08:01;;;;;;;0.30;0.30;;;;;;;15.81;100.00;99509.22;5011254;28;20045;-96
2023/06/10 04:10:27;;;;;;;1.30;1.20;;;;;;;15.81;100.00;99504.38;4997663;28;20034;-95
2023/06/10 04:12:55;;;;;;;1.90;1.05;;;;;;;15.74;100.00;99476.81;4990181;28;20040;-95
2023/06/10 04:15:23;;;;;;;1.35;1.05;;;;;;;15.88;100.00;99480.84;4981318;28;20044;-94
2023/06/10 04:17:49;;;;;;;1.10;0.80;;;;;;;15.96;100.00;99486.78;5023197;28;20025;-96
2023/06/10 04:20:17;;;;;;;0.60;0.60;;;;;;;16.00;100.00;99492.97;4985781;28;20026;-95
2023/06/10 04:22:49;;;;;;;0.35;0.25;;;;;;;16.25;100.00;99514.69;5013204;28;20192;-95
2023/06/10 04:25:16;;;;;;;0.95;0.80;;;;;;;16.18;100.00;99492.69;5004196;28;20033;-96
2023/06/10 04:27:43;;;;;;;0.20;0.20;;;;;;;16.22;100.00;99505.22;5001698;28;21447;-95
2023/06/10 04:30:10;;;;;;;0.47;0.47;;;;;;;16.28;100.00;99508.09;4981541;28;20049;-96
2023/06/10 04:32:37;;;;;;;0.35;0.35;;;;;;;16.31;100.00;99512.72;5012736;28;20625;-96
2023/06/10 04:35:06;;;;;;;0.52;0.40;;;;;;;16.30;100.00;99505.56;4989799;28;20490;-95
2023/06/10 04:37:32;;;;;;;1.05;0.60;;;;;;;16.34;100.00;99511.72;4996069;28;20032;-96
2023/06/10 04:39:59;;;;;;;0.68;0.63;;;;;;;16.36;100.00;99508.44;4991527;28;20036;-95
2023/06/10 04:42:25;;;;;;;2.20;0.80;;;;;;;16.42;100.00;99509.31;4987163;28;20034;-95
2023/06/10 04:44:51;;;;;;;0.10;0.10;;;;;;;16.53;100.00;99517.84;5004891;28;20034;-96
2023/06/10 04:47:17;;;;;;;0.38;0.38;;;;;;;16.54;100.00;99514.53;4982791;28;20021;-95
2023/06/10 04:49:44;;;;;;;0.73;0.73;;;;;;;16.58;100.00;99517.19;4997156;28;20056;-94
2023/06/10 04:52:10;;;;;;;1.05;0.65;;;;;;;16.54;100.00;99511.00;4994401;28;20065;-95
2023/06/10 04:54:38;;;;;;;0.65;0.43;;;;;;;16.63;100.00;99522.06;5016080;28;20033;-96
2023/06/10 04:57:05;;;;;;;0.93;0.93;;;;;;;16.75;100.00;99541.31;4998429;28;20045;-96
2023/06/10 04:59:37;;;;;;;1.02;0.95;;;;;;;16.76;100.00;99537.25;5005529;28;20034;-95
2023/06/10 05:02:04;;;;;;;1.50;1.25;;;;;;;16.65;100.00;99520.31;5016791;28;20418;-96
2023/06/10 05:04:30;;;;;;;0.50;0.50;;;;;;;16.93;100.00;99542.28;5020688;28;20049;-96
2023/06/10 05:06:55;;;;;;;0.75;0.75;;;;;;;16.96;100.00;99516.06;4994670;28;20037;-95
2023/06/10 05:09:21;;;;;;;0.70;0.63;;;;;;;17.10;100.00;99515.22;4993688;28;20406;-95
2023/06/10 05:11:47;;;;;;;1.33;0.98;;;;;;;17.32;100.00;99529.41;4977756;28;20029;-95
2023/06/10 05:14:12;;;;;;;0.73;0.73;;;;;;;17.46;100.00;99520.13;5013760;28;20029;-94
2023/06/10 05:16:38;;;;;;;0.70;0.63;;;;;;;17.56;100.00;99529.91;5009576;28;20033;-92
2023/06/10 05:19:04;;;;;;;0.70;0.70;;;;;;;17.66;100.00;99533.34;4974217;28;20035;-93
2023/06/10 05:21:30;;;;;;;0.43;0.43;;;;;;;17.69;100.00;99530.28;5007931;28;22320;-93
2023/06/10 05:23:56;;;;;;;0.43;0.43;;;;;;;17.73;100.00;99529.28;5021828;28;20040;-94
2023/06/10 05:26:25;;;;;;;0.63;0.63;;;;;;;17.73;100.00;99534.91;4993672;28;20029;-93
2023/06/10 05:28:50;;;;;;;0.85;0.73;;;;;;;17.77;100.00;99527.03;4988094;28;20410;-93
2023/06/10 05:31:16;;;;;;;0.35;0.35;;;;;;;17.91;100.00;99526.13;5010038;28;20030;-94
2023/06/10 05:33:41;;;;;;;2.90;0.70;;;;;;;18.01;100.00;99519.81;5009068;28;20120;-94
2023/06/10 05:36:07;;;;;;;0.82;0.82;;;;;;;18.09;100.00;99536.94;5001419;28;20048;-95
2023/06/10 05:38:33;;;;;;;0.43;0.32;;;;;;;18.17;100.00;99538.78;5015711;28;20029;-95
2023/06/10 05:40:58;;;;;;;0.43;0.40;;;;;;;18.26;100.00;99523.78;4991722;28;20033;-95
2023/06/10 05:43:24;;;;;;;0.68;0.68;;;;;;;18.63;100.00;99547.00;5007690;28;20032;-96
2023/06/10 05:45:50;;;;;;;0.88;0.77;;;;;;;18.72;100.00;99534.00;5003716;28;20057;-95
2023/06/10 05:48:19;;;;;;;0.20;0.20;;;;;;;18.71;100.00;99501.56;4984117;28;20570;-96
2023/06/10 05:50:48;;;;;;;0.77;0.60;;;;;;;19.09;100.00;99548.66;5011883;28;20040;-94
2023/06/10 05:53:15;;;;;;;1.00;0.80;;;;;;;19.33;100.00;99534.91;5018451;28;20114;-93
2023/06/10 05:55:44;;;;;;;1.85;1.23;;;;;;;19.32;100.00;99532.63;4988017;28;20266;-95
2023/06/10 05:58:12;;;;;;;1.75;1.38;;;;;;;19.35;100.00;99531.59;5010191;28;20115;-94
2023/06/10 06:00:38;;;;;;;1.08;0.93;;;;;;;19.60;100.00;99538.28;5013463;28;20064;-96
2023/06/10 06:03:07;;;;;;;0.47;0.32;;;;;;;19.64;100.00;99525.50;5001963;28;20063;-96
2023/06/10 06:05:34;;;;;;;0.43;0.43;;;;;;;19.92;100.00;99533.94;5006130;28;20034;-96
2023/06/10 06:08:01;;;;;;;0.32;0.32;;;;;;;19.79;100.00;99508.34;5009778;28;20143;-96
2023/06/10 06:10:27;;;;;;;0.90;0.57;;;;;;;19.96;100.00;99540.84;4995773;28;20561;-96
2023/06/10 06:12:53;;;;;;;1.67;1.33;;;;;;;20.16;100.00;99539.78;5016023;28;20045;-96
2023/06/10 06:15:18;;;;;;;0.68;0.68;;;;;;;19.99;100.00;99527.78;5021396;28;20487;-96
2023/06/10 06:17:44;;;;;;;1.00;0.73;;;;;;;20.15;100.00;99506.50;4979952;28;20058;-95
2023/06/10 06:20:10;;;;;;;0.57;0.57;;;;;;;20.08;100.00;99524.69;5000219;28;20438;-95
2023/06/10 06:22:36;;;;;;;2.75;1.40;;;;;;;19.92;100.00;99517.81;4995057;28;20041;-93
2023/06/10 06:25:02;;;;;;;1.80;1.70;;;;;;;19.91;100.00;99521.13;5028073;28;20073;-92
2023/06/10 06:27:28;;;;;;;1.73;1.20;;;;;;;19.87;100.00;99489.66;5029186;28;20418;-93
2023/06/10 06:29:53;;;;;;;1.17;0.63;;;;;;;20.31;100.00;99543.09;5028962;28;20048;-91
2023/06/10 06:32:21;;;;;;;0.85;0.85;;;;;;;20.40;100.00;99525.94;5022545;28;20052;-92
2023/06/10 06:34:49;;;;;;;0.68;0.68;;;;;;;20.71;100.00;99524.00;5018346;28;20045;-91
2023/06/10 06:37:14;;;;;;;1.23;1.13;;;;;;;20.91;100.00;99515.19;5014580;28;20422;-91
2023/06/10 06:39:43;;;;;;;0.98;0.98;;;;;;;21.00;100.00;99534.63;5002674;28;20036;-93
2023/06/10 06:42:08;;;;;;;0.75;0.75;;;;;;;21.18;100.00;99516.38;5002047;28;20041;-92
2023/06/10 06:44:47;;;;;;;1.13;0.93;;;;;;;21.30;100.00;99529.09;5018225;28;20554;-93
2023/06/10 06:47:13;;;;;;;1.42;0.77;;;;;;;21.38;100.00;99533.66;5000937;28;20041;-92
2023/06/10 06:49:38;;;;;;;1.25;1.15;;;;;;;21.56;100.00;99529.41;4995442;28;20033;-91
2023/06/10 06:52:04;;;;;;;0.80;0.80;;;;;;;21.40;100.00;99524.66;4996049;28;20673;-92
2023/06/10 06:54:30;;;;;;;1.85;1.05;;;;;;;21.51;100.00;99532.28;4990304;28;20089;-91
2023/06/10 06:56:56;;;;;;;0.93;0.68;;;;;;;21.60;100.00;99546.81;4974562;28;20040;-91
2023/06/10 06:59:21;;;;;;;1.45;0.75;;;;;;;21.89;100.00;99542.50;5016986;28;20029;-91
2023/06/10 07:01:47;;;;;;;1.30;0.82;;;;;;;22.24;100.00;99548.06;5006885;28;20042;-91
2023/06/10 07:04:14;;;;;;;0.93;0.90;;;;;;;22.44;100.00;99560.22;4994305;28;20041;-90
2023/06/10 07:06:40;;;;;;;1.38;1.27;;;;;;;22.82;100.00;99544.88;4995095;28;20067;-93
2023/06/10 07:09:08;;;;;;;1.20;1.10;;;;;;;23.04;100.00;99547.44;5008915;28;20030;-93
2023/06/10 07:11:34;;;;;;;0.60;0.52;;;;;;;23.09;100.00;99535.25;4978125;28;20029;-93
2023/06/10 07:14:00;;;;;;;1.60;1.50;;;;;;;23.19;100.00;99539.25;4977797;28;20025;-92
2023/06/10 07:16:25;;;;;;;2.00;1.73;;;;;;;23.45;100.00;99532.22;5010325;28;20022;-92
2023/06/10 07:18:52;;;;;;;1.52;0.98;;;;;;;23.42;100.00;99533.22;5012888;28;20391;-92
2023/06/10 07:21:18;;;;;;;0.88;0.88;;;;;;;23.17;100.00;99533.34;4989074;28;20045;-92
2023/06/10 07:23:44;;;;;;;2.40;1.20;;;;;;;22.96;100.00;99525.94;4983186;28;20038;-94
2023/06/10 07:26:16;;;;;;;1.02;0.98;;;;;;;22.89;100.00;99504.69;5011554;28;20470;-95
2023/06/10 07:28:41;;;;;;;0.75;0.68;;;;;;;22.65;100.00;99525.25;5011457;28;20033;-92
2023/06/10 07:31:08;;;;;;;1.45;1.35;;;;;;;22.87;100.00;99543.28;5016233;28;20422;-93
2023/06/10 07:33:34;;;;;;;1.10;1.02;;;;;;;23.21;100.00;99545.09;4999411;28;20083;-93
2023/06/10 07:35:59;;;;;;;3.83;1.67;;;;;;;23.06;100.00;99525.00;5005590;28;20459;-94
2023/06/10 07:38:26;;;;;;;2.05;0.77;;;;;;;23.29;100.00;99544.50;5006289;28;20034;-95
2023/06/10 07:40:52;;;;;;;1.55;1.45;;;;;;;23.49;100.00;99549.63;5005629;28;20080;-94
2023/06/10 07:43:17;;;;;;;1.55;1.45;;;;;;;23.48;100.00;99519.81;4983629;28;20050;-93
2023/06/10 07:45:43;;;;;;;0.68;0.52;;;;;;;23.87;100.00;99545.41;5014855;28;20108;-94
2023/06/10 07:48:12;;;;;;;0.50;0.50;;;;;;;23.34;100.00;99533.09;5012808;28;20052;-93
2023/06/10 07:50:38;;;;;;;1.15;1.00;;;;;;;23.13;100.00;99523.66;5009612;28;20490;-94
2023/06/10 07:53:03;;;;;;;1.13;1.08;;;;;;;23.31;100.00;99527.75;5008570;28;20112;-94
2023/06/10 07:55:29;;;;;;;1.73;1.60;;;;;;;23.37;100.00;99536.94;4996457;28;20094;-95
2023/06/10 07:57:55;;;;;;;1.75;0.95;;;;;;;23.42;100.00;99524.75;5026135;28;20113;-92
2023/06/10 08:00:21;;;;;;;0.28;0.28;;;;;;;23.35;100.00;99540.28;5013661;28;20033;-92
2023/06/10 08:02:46;;;;;;;1.02;0.98;;;;;;;23.07;100.00;99546.34;5013235;28;20077;-92
2023/06/10 08:05:12;;;;;;;2.75;1.20;;;;;;;22.94;100.00;99551.91;5026804;28;20483;-92
2023/06/10 08:07:39;;;;;;;1.10;0.82;;;;;;;22.73;100.00;99554.50;5010196;28;20040;-93
2023/06/10 08:10:05;;;;;;;1.48;0.95;;;;;;;22.73;100.00;99553.72;5009503;28;20037;-92
2023/06/10 08:12:32;;;;;;;0.40;0.40;;;;;;;22.57;100.00;99546.94;5012244;28;20064;-96
2023/06/10 08:14:58;;;;;;;1.20;0.93;;;;;;;22.94;100.00;99554.75;5001288;28;20156;-94
2023/06/10 08:17:24;;;;;;;1.77;1.15;;;;;;;23.06;100.00;99558.19;5017835;28;20045;-95
2023/06/10 08:19:49;;;;;;;0.52;0.52;;;;;;;23.07;100.00;99546.34;4985002;28;20080;-94
2023/06/10 08:22:15;;;;;;;2.47;1.40;;;;;;;23.11;100.00;99549.63;4996645;28;20046;-96
2023/06/10 08:24:40;;;;;;;0.73;0.60;;;;;;;22.94;100.00;99568.13;5015257;28;20403;-94
2023/06/10 08:27:06;;;;;;;2.50;0.57;;;;;;;22.73;100.00;99562.22;5019527;28;20063;-92
2023/06/10 08:29:32;;;;;;;10.80;1.17;;;;;;;22.68;100.00;99551.72;5031288;28;20504;-93
2023/06/10 08:31:58;;;;;;;0.82;0.82;;;;;;;22.72;100.00;99552.97;5006417;28;20034;-94
2023/06/10 08:34:23;;;;;;;0.50;0.50;;;;;;;22.78;100.00;99567.03;5024926;28;20510;-93
2023/06/10 08:36:55;;;;;;;0.35;0.35;;;;;;;22.96;100.00;99563.47;5023105;28;20092;-93
2023/06/10 08:39:21;;;;;;;1.20;0.60;;;;;;;23.41;100.00;99565.69;4995758;28;20042;-93
2023/06/10 08:42:06;;;;;;;1.85;0.98;;;;;;;23.89;100.00;99559.81;5024741;28;20037;-93
2023/06/10 08:44:33;;;;;;;0.63;0.57;;;;;;;24.11;99.30;99553.72;5028096;28;20130;-93
2023/06/10 08:47:12;;;;;;;0.75;0.75;;;;;;;24.43;100.00;99555.75;5017088;28;20029;-91
2023/06/10 08:49:40;;;;;;;0.77;0.77;;;;;;;24.70;98.39;99548.03;5017384;28;20046;-91
2023/06/10 08:52:06;;;;;;;1.13;0.20;;;;;;;24.52;95.23;99555.31;4998136;28;20068;-94
2023/06/10 08:54:37;;;;;;;0.70;0.70;;;;;;;24.62;97.96;99556.44;4993741;28;20033;-93
2023/06/10 08:57:06;;;;;;;0.50;0.50;;;;;;;24.64;91.67;99542.44;5014633;28;20067;-92
2023/06/10 08:59:32;;;;;;;1.23;0.82;;;;;;;24.54;90.13;99549.88;5013358;28;20083;-91
2023/06/10 09:01:58;;;;;;;0.32;0.32;;;;;;;24.25;92.24;99553.78;5028628;28;20041;-91
2023/06/10 09:04:26;;;;;;;0.57;0.55;;;;;;;23.58;99.42;99543.56;5027246;28;20129;-90
2023/06/10 09:06:52;;;;;;;0.77;0.70;;;;;;;23.59;100.00;99540.19;5008976;28;20061;-91
2023/06/10 09:09:20;;;;;;;0.77;0.52;;;;;;;23.74;100.00;99539.69;4985258;28;20073;-92
2023/06/10 09:11:46;;;;;;;0.75;0.50;;;;;;;23.76;100.00;99556.91;5001846;28;20501;-92
2023/06/10 09:14:16;;;;;;;2.40;1.20;;;;;;;23.56;100.00;99546.19;5023615;28;20037;-91
2023/06/10 09:16:42;;;;;;;0.85;0.52;;;;;;;23.69;100.00;99540.56;5023791;28;20102;-91
2023/06/10 09:19:08;;;;;;;0.55;0.55;;;;;;;24.02;99.71;99550.56;5002106;28;20495;-90
2023/06/10 09:21:35;;;;;;;0.93;0.80;;;;;;;24.25;94.84;99545.28;5027172;28;20034;-93
2023/06/10 09:24:01;;;;;;;1.00;0.70;;;;;;;24.42;97.91;99545.75;4979433;28;20041;-95
2023/06/10 09:26:30;;;;;;;1.70;1.15;;;;;;;24.39;94.27;99544.75;4997792;28;20037;-92
2023/06/10 09:29:06;;;;;;;0.70;0.70;;;;;;;24.72;92.07;99543.31;5030727;28;20285;-93
2023/06/10 09:31:34;;;;;;;1.38;1.27;;;;;;;24.98;90.20;99542.56;5008408;28;20033;-94
2023/06/10 09:34:11;;;;;;;0.75;0.75;;;;;;;25.27;88.04;99537.78;5017243;28;20144;-93
2023/06/10 09:36:37;;;;;;;0.60;0.38;;;;;;;25.40;78.82;99532.03;4991114;28;20118;-93
2023/06/10 09:39:04;;;;;;;4.25;1.30;;;;;;;25.63;79.54;99538.00;5011235;28;20045;-94
2023/06/10 09:41:39;;;;;;;0.55;0.45;;;;;;;25.00;82.38;99532.16;5011298;28;20038;-93
2023/06/10 09:44:13;;;;;;;0.55;0.50;;;;;;;25.19;79.52;99529.19;4992029;28;20045;-93
2023/06/10 09:46:38;;;;;;;0.57;0.57;;;;;;;25.26;80.00;99516.38;4995668;28;20045;-93
2023/06/10 09:49:04;;;;;;;0.52;0.43;;;;;;;24.91;85.12;99515.59;5018011;28;20494;-94
2023/06/10 09:51:29;;;;;;;1.73;0.77;;;;;;;24.98;89.28;99520.63;5002758;28;20098;-93
2023/06/10 09:53:55;;;;;;;0.95;0.95;;;;;;;25.04;87.96;99524.09;5005282;28;20479;-93
2023/06/10 09:56:23;;;;;;;0.35;0.35;;;;;;;25.05;86.70;99519.94;4980652;28;20490;-94
2023/06/10 09:58:53;;;;;;;0.70;0.70;;;;;;;25.17;87.81;99525.38;4998379;28;20062;-93
2023/06/10 10:01:18;;;;;;;0.30;0.30;;;;;;;25.43;86.28;99502.56;5021047;28;20045;-96
2023/06/10 10:03:45;;;;;;;1.05;0.95;;;;;;;25.51;79.19;99521.22;5010191;28;20041;-92
2023/06/10 10:06:11;;;;;;;1.65;0.63;;;;;;;25.28;80.63;99520.19;5028722;28;20069;-93
2023/06/10 10:08:36;;;;;;;0.77;0.65;;;;;;;25.60;78.46;99528.50;5008461;28;20455;-93
2023/06/10 10:11:03;;;;;;;1.25;1.00;;;;;;;25.71;77.98;99527.47;5010703;28;20037;-94
2023/06/10 10:13:29;;;;;;;0.68;0.68;;;;;;;25.27;82.39;99523.59;4989966;28;20025;-94
2023/06/10 10:15:57;;;;;;;1.10;0.75;;;;;;;24.68;88.21;99525.88;4998981;28;20033;-94
2023/06/10 10:18:28;;;;;;;2.15;1.70;;;;;;;24.33;91.84;99535.59;4982615;28;20049;-94
2023/06/10 10:20:55;;;;;;;1.00;0.93;;;;;;;24.50;91.44;99527.53;5023352;28;20090;-93
2023/06/10 10:23:25;;;;;;;1.10;0.90;;;;;;;24.26;89.11;99512.81;4982074;28;20030;-93
2023/06/10 10:25:52;;;;;;;1.27;0.90;;;;;;;24.64;93.30;99508.41;5016539;28;20033;-93
2023/06/10 10:28:20;;;;;;;0.70;0.70;;;;;;;25.08;87.27;99520.91;4985136;28;20037;-93
2023/06/10 10:30:49;;;;;;;0.75;0.68;;;;;;;25.41;85.79;99505.19;4988322;28;20148;-93
2023/06/10 10:33:28;;;;;;;0.75;0.75;;;;;;;25.48;82.15;99510.16;5016475;28;20032;-93
2023/06/10 10:35:54;;;;;;;1.00;0.90;;;;;;;25.38;82.05;99489.25;5000782;28;20030;-91
2023/06/10 10:38:24;;;;;;;1.23;1.13;;;;;;;25.15;85.33;99510.97;5021884;28;20021;-90
2023/06/10 10:40:50;;;;;;;0.65;0.65;;;;;;;25.03;83.25;99505.53;5004998;28;20045;-92
2023/06/10 10:43:16;;;;;;;0.20;0.20;;;;;;;24.87;82.11;99509.50;5015932;28;20044;-92
2023/06/10 10:45:42;;;;;;;0.65;0.52;;;;;;;25.31;82.04;99512.66;5008692;28;20069;-94
2023/06/10 10:48:11;;;;;;;0.75;0.75;;;;;;;25.57;77.12;99504.03;4993380;28;20132;-94
2023/06/10 10:50:37;;;;;;;0.77;0.60;;;;;;;25.60;75.12;99511.44;5008711;28;20521;-94
2023/06/10 10:53:06;;;;;;;1.08;0.63;;;;;;;26.24;74.80;99510.88;5019424;28;20025;-95
2023/06/10 10:55:32;;;;;;;0.47;0.47;;;;;;;26.34;70.08;99509.03;5007937;28;20029;-95
2023/06/10 10:58:05;;;;;;;1.10;1.00;;;;;;;25.85;73.83;99504.09;5014235;28;20481;-94
2023/06/10 11:00:33;;;;;;;0.95;0.93;;;;;;;26.15;76.29;99491.44;5009344;28;20041;-94
2023/06/10 11:03:02;;;;;;;0.57;0.40;;;;;;;26.41;73.04;99508.31;5031096;28;20088;-94
2023/06/10 11:05:48;;;;;;;0.38;0.38;;;;;;;26.70;73.59;99489.88;5026382;28;20574;-93
2023/06/10 11:08:38;;;;;;;0.93;0.57;;;;;;;26.61;66.93;99481.88;5025441;28;20099;-94
2023/06/10 11:11:26;;;;;;;0.60;0.60;;;;;;;27.12;67.58;99489.69;5023701;28;20068;-93
2023/06/10 11:14:07;;;;;;;0.38;0.38;;;;;;;26.71;66.95;99485.72;5008090;28;20416;-92
2023/06/10 11:16:42;;;;;;;0.73;0.73;;;;;;;26.51;70.30;99494.34;5026763;28;20045;-93
2023/06/10 11:19:09;;;;;;;1.33;0.93;;;;;;;26.64;69.26;99475.09;5008812;28;20046;-93
2023/06/10 11:22:03;;;;;;;0.52;0.52;;;;;;;27.03;63.38;99481.69;5006036;28;20450;-92
2023/06/10 11:24:32;;;;;;;0.30;0.30;;;;;;;27.26;63.51;99476.81;5003935;28;20128;-93
2023/06/10 11:27:20;;;;;;;2.53;0.98;;;;;;;27.43;66.06;99468.50;5012524;28;20108;-92
2023/06/10 11:30:03;;;;;;;0.50;0.50;;;;;;;27.04;68.47;99469.75;5014919;28;20045;-93
2023/06/10 11:32:33;;;;;;;1.37;1.27;;;;;;;26.62;67.72;99460.66;5027449;28;20095;-92